sensor_id;sensor_type;location;lat;lon;timestamp;P1;durP1;ratioP1;P2;durP2;ratioP2
40339;SDS011;26044;50.864;20.658;2023-03-07T00:01:27;68.57;;;31.02;;
40339;SDS011;26044;50.864;20.658;2023-03-07T00:03:56;71.03;;;29.65;;
40339;SDS011;26044;50.864;20.658;2023-03-07T00:06:24;68.60;;;31.25;;
40339;SDS011;26044;50.864;20.658;2023-03-07T00:08:51;69.72;;;30.52;;
40339;SDS011;26044;50.864;20.658;2023-03-07T00:11:20;69.68;;;31.30;;
40339;SDS011;26044;50.864;20.658;2023-03-07T00:13:47;66.95;;;30.02;;
40339;SDS011;26044;50.864;20.658;2023-03-07T00:16:15;70.00;;;31.65;;
40339;SDS011;26044;50.864;20.658;2023-03-07T00:18:44;72.95;;;32.17;;
40339;SDS011;26044;50.864;20.658;2023-03-07T00:21:12;74.20;;;32.45;;
40339;SDS011;26044;50.864;20.658;2023-03-07T00:23:41;72.35;;;31.25;;
40339;SDS011;26044;50.864;20.658;2023-03-07T00:28:40;61.17;;;29.25;;
40339;SDS011;26044;50.864;20.658;2023-03-07T00:31:08;63.33;;;28.17;;
40339;SDS011;26044;50.864;20.658;2023-03-07T00:33:36;72.45;;;30.58;;
40339;SDS011;26044;50.864;20.658;2023-03-07T00:36:12;66.90;;;28.58;;
40339;SDS011;26044;50.864;20.658;2023-03-07T00:38:40;64.38;;;29.17;;
40339;SDS011;26044;50.864;20.658;2023-03-07T00:41:11;66.43;;;29.50;;
40339;SDS011;26044;50.864;20.658;2023-03-07T00:43:46;59.60;;;27.33;;
40339;SDS011;26044;50.864;20.658;2023-03-07T00:46:14;62.55;;;28.40;;
40339;SDS011;26044;50.864;20.658;2023-03-07T00:48:42;61.45;;;28.67;;
40339;SDS011;26044;50.864;20.658;2023-03-07T00:51:12;62.72;;;27.50;;
40339;SDS011;26044;50.864;20.658;2023-03-07T00:53:41;64.50;;;29.60;;
40339;SDS011;26044;50.864;20.658;2023-03-07T00:56:11;65.03;;;29.77;;
40339;SDS011;26044;50.864;20.658;2023-03-07T00:58:41;67.00;;;28.20;;
40339;SDS011;26044;50.864;20.658;2023-03-07T01:01:08;75.57;;;30.33;;
40339;SDS011;26044;50.864;20.658;2023-03-07T01:03:36;63.25;;;29.27;;
40339;SDS011;26044;50.864;20.658;2023-03-07T01:06:05;63.88;;;28.63;;
40339;SDS011;26044;50.864;20.658;2023-03-07T01:08:37;65.53;;;30.27;;
40339;SDS011;26044;50.864;20.658;2023-03-07T01:11:05;65.05;;;29.48;;
40339;SDS011;26044;50.864;20.658;2023-03-07T01:13:33;69.63;;;30.00;;
40339;SDS011;26044;50.864;20.658;2023-03-07T01:16:07;66.18;;;30.40;;
40339;SDS011;26044;50.864;20.658;2023-03-07T01:18:39;65.07;;;28.95;;
40339;SDS011;26044;50.864;20.658;2023-03-07T01:21:20;67.65;;;30.05;;
40339;SDS011;26044;50.864;20.658;2023-03-07T01:23:48;71.15;;;31.73;;
40339;SDS011;26044;50.864;20.658;2023-03-07T01:26:17;67.82;;;29.80;;
40339;SDS011;26044;50.864;20.658;2023-03-07T01:28:45;64.68;;;28.88;;
40339;SDS011;26044;50.864;20.658;2023-03-07T01:31:12;64.95;;;29.73;;
40339;SDS011;26044;50.864;20.658;2023-03-07T01:33:40;63.00;;;29.63;;
40339;SDS011;26044;50.864;20.658;2023-03-07T01:41:15;63.35;;;28.15;;
40339;SDS011;26044;50.864;20.658;2023-03-07T01:43:43;65.53;;;30.27;;
40339;SDS011;26044;50.864;20.658;2023-03-07T01:49:02;63.60;;;29.88;;
40339;SDS011;26044;50.864;20.658;2023-03-07T01:51:46;64.80;;;29.30;;
40339;SDS011;26044;50.864;20.658;2023-03-07T01:54:16;68.85;;;30.23;;
40339;SDS011;26044;50.864;20.658;2023-03-07T01:56:44;66.47;;;29.92;;
40339;SDS011;26044;50.864;20.658;2023-03-07T01:59:13;65.20;;;29.25;;
40339;SDS011;26044;50.864;20.658;2023-03-07T02:01:45;64.82;;;29.73;;
40339;SDS011;26044;50.864;20.658;2023-03-07T02:04:14;65.68;;;29.58;;
40339;SDS011;26044;50.864;20.658;2023-03-07T02:06:46;66.80;;;30.35;;
40339;SDS011;26044;50.864;20.658;2023-03-07T02:09:16;66.70;;;29.75;;
40339;SDS011;26044;50.864;20.658;2023-03-07T02:11:45;62.58;;;28.70;;
40339;SDS011;26044;50.864;20.658;2023-03-07T02:14:13;67.18;;;30.48;;
40339;SDS011;26044;50.864;20.658;2023-03-07T02:16:40;67.47;;;29.75;;
40339;SDS011;26044;50.864;20.658;2023-03-07T02:19:13;63.95;;;30.17;;
40339;SDS011;26044;50.864;20.658;2023-03-07T02:22:03;64.35;;;29.80;;
40339;SDS011;26044;50.864;20.658;2023-03-07T02:27:24;67.40;;;31.40;;
40339;SDS011;26044;50.864;20.658;2023-03-07T02:29:52;65.63;;;29.55;;
40339;SDS011;26044;50.864;20.658;2023-03-07T02:32:19;65.97;;;30.55;;
40339;SDS011;26044;50.864;20.658;2023-03-07T02:34:47;65.40;;;30.98;;
40339;SDS011;26044;50.864;20.658;2023-03-07T02:37:18;66.53;;;30.45;;
40339;SDS011;26044;50.864;20.658;2023-03-07T02:39:47;68.10;;;30.92;;
40339;SDS011;26044;50.864;20.658;2023-03-07T02:42:17;74.80;;;32.97;;
40339;SDS011;26044;50.864;20.658;2023-03-07T02:44:54;72.85;;;33.15;;
40339;SDS011;26044;50.864;20.658;2023-03-07T02:47:30;69.60;;;32.03;;
40339;SDS011;26044;50.864;20.658;2023-03-07T02:49:57;74.03;;;32.38;;
40339;SDS011;26044;50.864;20.658;2023-03-07T02:52:24;72.90;;;33.72;;
40339;SDS011;26044;50.864;20.658;2023-03-07T02:54:53;71.93;;;31.50;;
40339;SDS011;26044;50.864;20.658;2023-03-07T02:57:20;71.40;;;32.75;;
40339;SDS011;26044;50.864;20.658;2023-03-07T02:59:48;72.05;;;33.78;;
40339;SDS011;26044;50.864;20.658;2023-03-07T03:02:15;72.13;;;32.42;;
40339;SDS011;26044;50.864;20.658;2023-03-07T03:04:42;69.43;;;31.50;;
40339;SDS011;26044;50.864;20.658;2023-03-07T03:07:09;72.78;;;33.00;;
40339;SDS011;26044;50.864;20.658;2023-03-07T03:09:36;71.93;;;32.78;;
40339;SDS011;26044;50.864;20.658;2023-03-07T03:12:03;72.68;;;32.33;;
40339;SDS011;26044;50.864;20.658;2023-03-07T03:14:31;69.97;;;32.28;;
40339;SDS011;26044;50.864;20.658;2023-03-07T03:16:58;69.35;;;31.25;;
40339;SDS011;26044;50.864;20.658;2023-03-07T03:19:25;70.63;;;31.33;;
40339;SDS011;26044;50.864;20.658;2023-03-07T03:21:53;72.68;;;31.75;;
40339;SDS011;26044;50.864;20.658;2023-03-07T03:24:20;68.97;;;30.67;;
40339;SDS011;26044;50.864;20.658;2023-03-07T03:26:47;66.80;;;31.17;;
40339;SDS011;26044;50.864;20.658;2023-03-07T03:29:14;74.30;;;32.40;;
40339;SDS011;26044;50.864;20.658;2023-03-07T03:31:41;64.68;;;30.50;;
40339;SDS011;26044;50.864;20.658;2023-03-07T03:34:08;70.80;;;31.35;;
40339;SDS011;26044;50.864;20.658;2023-03-07T03:36:35;69.88;;;31.48;;
40339;SDS011;26044;50.864;20.658;2023-03-07T03:39:02;69.07;;;31.33;;
40339;SDS011;26044;50.864;20.658;2023-03-07T03:41:32;70.05;;;31.50;;
40339;SDS011;26044;50.864;20.658;2023-03-07T03:43:59;71.75;;;31.60;;
40339;SDS011;26044;50.864;20.658;2023-03-07T03:46:27;63.35;;;29.45;;
40339;SDS011;26044;50.864;20.658;2023-03-07T03:48:54;66.55;;;29.40;;
40339;SDS011;26044;50.864;20.658;2023-03-07T03:51:22;69.63;;;31.75;;
40339;SDS011;26044;50.864;20.658;2023-03-07T03:53:50;64.93;;;28.80;;
40339;SDS011;26044;50.864;20.658;2023-03-07T03:56:18;70.28;;;31.75;;
40339;SDS011;26044;50.864;20.658;2023-03-07T03:58:47;64.77;;;30.70;;
40339;SDS011;26044;50.864;20.658;2023-03-07T04:01:16;67.40;;;30.60;;
40339;SDS011;26044;50.864;20.658;2023-03-07T04:03:45;67.40;;;30.38;;
40339;SDS011;26044;50.864;20.658;2023-03-07T04:06:14;65.60;;;29.30;;
40339;SDS011;26044;50.864;20.658;2023-03-07T04:08:52;66.53;;;29.88;;
40339;SDS011;26044;50.864;20.658;2023-03-07T04:11:20;76.63;;;31.58;;
40339;SDS011;26044;50.864;20.658;2023-03-07T04:13:47;63.47;;;29.42;;
40339;SDS011;26044;50.864;20.658;2023-03-07T04:16:15;69.30;;;32.40;;
40339;SDS011;26044;50.864;20.658;2023-03-07T04:18:42;67.88;;;30.33;;
40339;SDS011;26044;50.864;20.658;2023-03-07T04:21:10;61.47;;;28.33;;
40339;SDS011;26044;50.864;20.658;2023-03-07T04:23:37;66.63;;;31.13;;
40339;SDS011;26044;50.864;20.658;2023-03-07T04:26:05;60.85;;;27.67;;
40339;SDS011;26044;50.864;20.658;2023-03-07T04:28:35;69.77;;;31.17;;
40339;SDS011;26044;50.864;20.658;2023-03-07T04:31:15;70.53;;;30.98;;
40339;SDS011;26044;50.864;20.658;2023-03-07T04:33:45;64.45;;;29.15;;
40339;SDS011;26044;50.864;20.658;2023-03-07T04:36:13;71.25;;;31.30;;
40339;SDS011;26044;50.864;20.658;2023-03-07T04:41:12;69.47;;;29.33;;
40339;SDS011;26044;50.864;20.658;2023-03-07T04:43:42;69.38;;;32.08;;
40339;SDS011;26044;50.864;20.658;2023-03-07T04:46:11;76.85;;;34.33;;
40339;SDS011;26044;50.864;20.658;2023-03-07T04:48:39;72.25;;;33.30;;
40339;SDS011;26044;50.864;20.658;2023-03-07T04:51:06;72.78;;;32.15;;
40339;SDS011;26044;50.864;20.658;2023-03-07T04:53:33;70.82;;;30.95;;
40339;SDS011;26044;50.864;20.658;2023-03-07T04:56:01;73.13;;;32.55;;
40339;SDS011;26044;50.864;20.658;2023-03-07T04:58:33;69.45;;;31.60;;
40339;SDS011;26044;50.864;20.658;2023-03-07T05:01:02;71.65;;;29.90;;
40339;SDS011;26044;50.864;20.658;2023-03-07T05:03:30;71.07;;;31.90;;
40339;SDS011;26044;50.864;20.658;2023-03-07T05:06:01;69.80;;;30.63;;
40339;SDS011;26044;50.864;20.658;2023-03-07T05:08:30;66.60;;;29.52;;
40339;SDS011;26044;50.864;20.658;2023-03-07T05:10:57;67.65;;;29.25;;
40339;SDS011;26044;50.864;20.658;2023-03-07T05:13:26;64.55;;;29.88;;
40339;SDS011;26044;50.864;20.658;2023-03-07T05:15:53;68.97;;;31.30;;
40339;SDS011;26044;50.864;20.658;2023-03-07T05:18:22;74.43;;;32.28;;
40339;SDS011;26044;50.864;20.658;2023-03-07T05:20:49;69.85;;;32.03;;
40339;SDS011;26044;50.864;20.658;2023-03-07T05:23:17;71.68;;;30.90;;
40339;SDS011;26044;50.864;20.658;2023-03-07T05:25:45;70.97;;;33.15;;
40339;SDS011;26044;50.864;20.658;2023-03-07T05:28:13;75.97;;;31.30;;
40339;SDS011;26044;50.864;20.658;2023-03-07T05:30:42;78.32;;;36.20;;
40339;SDS011;26044;50.864;20.658;2023-03-07T05:33:11;78.82;;;34.80;;
40339;SDS011;26044;50.864;20.658;2023-03-07T05:35:38;84.53;;;39.15;;
40339;SDS011;26044;50.864;20.658;2023-03-07T05:38:05;82.32;;;36.42;;
40339;SDS011;26044;50.864;20.658;2023-03-07T05:40:33;84.00;;;37.13;;
40339;SDS011;26044;50.864;20.658;2023-03-07T05:43:00;77.80;;;36.58;;
40339;SDS011;26044;50.864;20.658;2023-03-07T05:45:27;82.63;;;36.72;;
40339;SDS011;26044;50.864;20.658;2023-03-07T05:47:54;84.68;;;39.65;;
40339;SDS011;26044;50.864;20.658;2023-03-07T05:50:21;81.78;;;37.75;;
40339;SDS011;26044;50.864;20.658;2023-03-07T05:52:49;80.68;;;38.95;;
40339;SDS011;26044;50.864;20.658;2023-03-07T05:55:18;78.85;;;35.95;;
40339;SDS011;26044;50.864;20.658;2023-03-07T05:57:45;77.50;;;36.10;;
40339;SDS011;26044;50.864;20.658;2023-03-07T06:00:14;77.85;;;38.15;;
40339;SDS011;26044;50.864;20.658;2023-03-07T06:02:41;80.65;;;36.58;;
40339;SDS011;26044;50.864;20.658;2023-03-07T06:05:08;77.05;;;37.00;;
40339;SDS011;26044;50.864;20.658;2023-03-07T06:07:36;74.85;;;36.35;;
40339;SDS011;26044;50.864;20.658;2023-03-07T06:10:03;79.53;;;38.17;;
40339;SDS011;26044;50.864;20.658;2023-03-07T06:12:30;84.75;;;37.90;;
40339;SDS011;26044;50.864;20.658;2023-03-07T06:14:57;81.72;;;37.97;;
40339;SDS011;26044;50.864;20.658;2023-03-07T06:17:24;76.68;;;37.13;;
40339;SDS011;26044;50.864;20.658;2023-03-07T06:19:51;75.65;;;36.50;;
40339;SDS011;26044;50.864;20.658;2023-03-07T06:22:21;76.73;;;36.50;;
40339;SDS011;26044;50.864;20.658;2023-03-07T06:24:48;83.13;;;39.33;;
40339;SDS011;26044;50.864;20.658;2023-03-07T06:27:15;82.05;;;37.85;;
40339;SDS011;26044;50.864;20.658;2023-03-07T06:29:42;87.53;;;37.47;;
40339;SDS011;26044;50.864;20.658;2023-03-07T06:32:09;81.28;;;36.08;;
40339;SDS011;26044;50.864;20.658;2023-03-07T06:34:36;76.07;;;35.03;;
40339;SDS011;26044;50.864;20.658;2023-03-07T06:37:03;75.18;;;36.15;;
40339;SDS011;26044;50.864;20.658;2023-03-07T06:39:30;78.90;;;36.90;;
40339;SDS011;26044;50.864;20.658;2023-03-07T06:41:57;86.40;;;38.55;;
40339;SDS011;26044;50.864;20.658;2023-03-07T06:44:24;78.57;;;39.08;;
40339;SDS011;26044;50.864;20.658;2023-03-07T06:46:51;81.75;;;38.65;;
40339;SDS011;26044;50.864;20.658;2023-03-07T06:49:18;85.43;;;40.97;;
40339;SDS011;26044;50.864;20.658;2023-03-07T06:51:45;86.97;;;41.35;;
40339;SDS011;26044;50.864;20.658;2023-03-07T06:54:12;82.00;;;39.50;;
40339;SDS011;26044;50.864;20.658;2023-03-07T06:56:41;87.03;;;39.92;;
40339;SDS011;26044;50.864;20.658;2023-03-07T06:59:10;76.43;;;37.00;;
40339;SDS011;26044;50.864;20.658;2023-03-07T07:01:40;84.13;;;38.08;;
40339;SDS011;26044;50.864;20.658;2023-03-07T07:04:08;86.03;;;38.25;;
40339;SDS011;26044;50.864;20.658;2023-03-07T07:06:36;77.40;;;36.58;;
40339;SDS011;26044;50.864;20.658;2023-03-07T07:09:03;79.28;;;35.78;;
40339;SDS011;26044;50.864;20.658;2023-03-07T07:11:31;84.00;;;35.28;;
40339;SDS011;26044;50.864;20.658;2023-03-07T07:13:59;76.78;;;38.28;;
40339;SDS011;26044;50.864;20.658;2023-03-07T07:16:37;81.07;;;37.08;;
40339;SDS011;26044;50.864;20.658;2023-03-07T07:19:18;77.50;;;36.60;;
40339;SDS011;26044;50.864;20.658;2023-03-07T07:21:58;74.18;;;33.55;;
40339;SDS011;26044;50.864;20.658;2023-03-07T07:24:28;67.75;;;31.92;;
40339;SDS011;26044;50.864;20.658;2023-03-07T07:26:56;69.93;;;32.08;;
40339;SDS011;26044;50.864;20.658;2023-03-07T07:29:23;69.88;;;33.00;;
40339;SDS011;26044;50.864;20.658;2023-03-07T07:31:51;79.82;;;34.50;;
40339;SDS011;26044;50.864;20.658;2023-03-07T07:34:21;77.40;;;35.08;;
40339;SDS011;26044;50.864;20.658;2023-03-07T07:36:49;75.78;;;34.13;;
40339;SDS011;26044;50.864;20.658;2023-03-07T07:39:17;77.45;;;35.03;;
40339;SDS011;26044;50.864;20.658;2023-03-07T07:41:44;80.85;;;35.05;;
40339;SDS011;26044;50.864;20.658;2023-03-07T07:44:13;71.55;;;34.28;;
40339;SDS011;26044;50.864;20.658;2023-03-07T07:46:41;77.70;;;36.15;;
40339;SDS011;26044;50.864;20.658;2023-03-07T07:49:09;82.28;;;36.50;;
40339;SDS011;26044;50.864;20.658;2023-03-07T07:51:36;78.78;;;37.03;;
40339;SDS011;26044;50.864;20.658;2023-03-07T07:54:06;83.57;;;38.55;;
40339;SDS011;26044;50.864;20.658;2023-03-07T07:56:34;82.30;;;38.38;;
40339;SDS011;26044;50.864;20.658;2023-03-07T07:59:01;78.18;;;34.88;;
40339;SDS011;26044;50.864;20.658;2023-03-07T08:01:29;84.60;;;38.63;;
40339;SDS011;26044;50.864;20.658;2023-03-07T08:03:55;87.57;;;40.20;;
40339;SDS011;26044;50.864;20.658;2023-03-07T08:06:24;90.57;;;39.13;;
40339;SDS011;26044;50.864;20.658;2023-03-07T08:08:53;87.43;;;40.33;;
40339;SDS011;26044;50.864;20.658;2023-03-07T08:11:22;86.18;;;40.22;;
40339;SDS011;26044;50.864;20.658;2023-03-07T08:13:49;88.63;;;40.92;;
40339;SDS011;26044;50.864;20.658;2023-03-07T08:16:17;88.80;;;41.03;;
40339;SDS011;26044;50.864;20.658;2023-03-07T08:18:48;85.85;;;40.05;;
40339;SDS011;26044;50.864;20.658;2023-03-07T08:21:19;85.20;;;40.10;;
40339;SDS011;26044;50.864;20.658;2023-03-07T08:23:48;83.35;;;37.47;;
40339;SDS011;26044;50.864;20.658;2023-03-07T08:26:15;88.15;;;39.28;;
40339;SDS011;26044;50.864;20.658;2023-03-07T08:28:43;83.85;;;40.65;;
40339;SDS011;26044;50.864;20.658;2023-03-07T08:31:11;80.22;;;38.92;;
40339;SDS011;26044;50.864;20.658;2023-03-07T08:33:40;73.90;;;34.53;;
40339;SDS011;26044;50.864;20.658;2023-03-07T08:36:07;73.47;;;33.70;;
40339;SDS011;26044;50.864;20.658;2023-03-07T08:38:35;70.65;;;34.08;;
40339;SDS011;26044;50.864;20.658;2023-03-07T08:41:05;72.97;;;31.98;;
40339;SDS011;26044;50.864;20.658;2023-03-07T08:43:34;66.25;;;31.95;;
40339;SDS011;26044;50.864;20.658;2023-03-07T08:46:02;58.80;;;27.95;;
40339;SDS011;26044;50.864;20.658;2023-03-07T08:48:30;64.82;;;31.60;;
40339;SDS011;26044;50.864;20.658;2023-03-07T08:51:02;60.08;;;31.20;;
40339;SDS011;26044;50.864;20.658;2023-03-07T08:53:35;60.45;;;28.20;;
40339;SDS011;26044;50.864;20.658;2023-03-07T08:56:06;67.93;;;30.00;;
40339;SDS011;26044;50.864;20.658;2023-03-07T08:58:36;59.20;;;28.58;;
40339;SDS011;26044;50.864;20.658;2023-03-07T09:01:04;59.53;;;28.15;;
40339;SDS011;26044;50.864;20.658;2023-03-07T09:03:32;65.55;;;29.00;;
40339;SDS011;26044;50.864;20.658;2023-03-07T09:06:00;60.15;;;28.50;;
40339;SDS011;26044;50.864;20.658;2023-03-07T09:08:28;57.47;;;28.80;;
40339;SDS011;26044;50.864;20.658;2023-03-07T09:10:58;60.60;;;29.67;;
40339;SDS011;26044;50.864;20.658;2023-03-07T09:13:26;62.30;;;28.73;;
40339;SDS011;26044;50.864;20.658;2023-03-07T09:15:53;61.80;;;29.88;;
40339;SDS011;26044;50.864;20.658;2023-03-07T09:18:20;61.78;;;29.65;;
40339;SDS011;26044;50.864;20.658;2023-03-07T09:20:50;60.22;;;28.80;;
40339;SDS011;26044;50.864;20.658;2023-03-07T09:23:17;58.47;;;29.00;;
40339;SDS011;26044;50.864;20.658;2023-03-07T09:25:46;62.97;;;30.83;;
40339;SDS011;26044;50.864;20.658;2023-03-07T09:28:14;64.55;;;30.45;;
40339;SDS011;26044;50.864;20.658;2023-03-07T09:30:40;71.55;;;33.60;;
40339;SDS011;26044;50.864;20.658;2023-03-07T09:33:07;65.85;;;31.25;;
40339;SDS011;26044;50.864;20.658;2023-03-07T09:35:34;54.28;;;26.63;;
40339;SDS011;26044;50.864;20.658;2023-03-07T09:38:03;52.08;;;22.88;;
40339;SDS011;26044;50.864;20.658;2023-03-07T09:40:30;47.65;;;24.17;;
40339;SDS011;26044;50.864;20.658;2023-03-07T09:49:15;36.53;;;17.45;;
40339;SDS011;26044;50.864;20.658;2023-03-07T09:54:20;29.55;;;13.10;;
40339;SDS011;26044;50.864;20.658;2023-03-07T09:56:53;27.48;;;13.43;;
40339;SDS011;26044;50.864;20.658;2023-03-07T09:59:42;30.48;;;12.52;;
40339;SDS011;26044;50.864;20.658;2023-03-07T10:07:34;29.37;;;12.57;;
40339;SDS011;26044;50.864;20.658;2023-03-07T10:10:05;25.13;;;11.43;;
40339;SDS011;26044;50.864;20.658;2023-03-07T10:12:56;26.80;;;11.48;;
40339;SDS011;26044;50.864;20.658;2023-03-07T10:15:43;31.65;;;13.73;;
40339;SDS011;26044;50.864;20.658;2023-03-07T10:21:22;30.98;;;13.15;;
40339;SDS011;26044;50.864;20.658;2023-03-07T10:29:21;33.92;;;12.15;;
40339;SDS011;26044;50.864;20.658;2023-03-07T10:31:50;30.70;;;14.48;;
40339;SDS011;26044;50.864;20.658;2023-03-07T10:37:14;31.85;;;13.68;;
40339;SDS011;26044;50.864;20.658;2023-03-07T10:39:48;32.13;;;14.73;;
40339;SDS011;26044;50.864;20.658;2023-03-07T10:42:20;30.27;;;13.43;;
40339;SDS011;26044;50.864;20.658;2023-03-07T10:44:49;29.63;;;12.73;;
40339;SDS011;26044;50.864;20.658;2023-03-07T10:47:21;29.77;;;11.93;;
40339;SDS011;26044;50.864;20.658;2023-03-07T10:49:50;26.77;;;10.75;;
40339;SDS011;26044;50.864;20.658;2023-03-07T10:52:29;26.90;;;10.88;;
40339;SDS011;26044;50.864;20.658;2023-03-07T10:58:17;27.38;;;11.52;;
40339;SDS011;26044;50.864;20.658;2023-03-07T11:01:02;28.13;;;11.38;;
40339;SDS011;26044;50.864;20.658;2023-03-07T11:06:28;22.65;;;9.52;;
40339;SDS011;26044;50.864;20.658;2023-03-07T11:12:33;24.60;;;9.73;;
40339;SDS011;26044;50.864;20.658;2023-03-07T11:14:47;23.38;;;8.93;;
40339;SDS011;26044;50.864;20.658;2023-03-07T11:17:22;26.98;;;10.15;;
40339;SDS011;26044;50.864;20.658;2023-03-07T11:19:53;24.85;;;10.07;;
40339;SDS011;26044;50.864;20.658;2023-03-07T11:22:22;26.98;;;9.65;;
40339;SDS011;26044;50.864;20.658;2023-03-07T11:27:31;25.60;;;9.98;;
40339;SDS011;26044;50.864;20.658;2023-03-07T11:30:20;24.27;;;9.27;;
40339;SDS011;26044;50.864;20.658;2023-03-07T11:38:28;25.67;;;9.48;;
40339;SDS011;26044;50.864;20.658;2023-03-07T11:49:42;27.73;;;10.68;;
40339;SDS011;26044;50.864;20.658;2023-03-07T12:06:55;27.45;;;11.63;;
40339;SDS011;26044;50.864;20.658;2023-03-07T12:20:23;29.83;;;11.10;;
40339;SDS011;26044;50.864;20.658;2023-03-07T12:25:51;28.90;;;11.18;;
40339;SDS011;26044;50.864;20.658;2023-03-07T12:28:33;26.98;;;11.27;;
40339;SDS011;26044;50.864;20.658;2023-03-07T12:31:16;26.77;;;11.10;;
40339;SDS011;26044;50.864;20.658;2023-03-07T12:36:23;27.27;;;10.73;;
40339;SDS011;26044;50.864;20.658;2023-03-07T12:39:14;25.42;;;10.43;;
40339;SDS011;26044;50.864;20.658;2023-03-07T12:53:39;27.75;;;10.80;;
40339;SDS011;26044;50.864;20.658;2023-03-07T12:56:37;29.80;;;10.35;;
40339;SDS011;26044;50.864;20.658;2023-03-07T12:59:27;24.15;;;9.25;;
40339;SDS011;26044;50.864;20.658;2023-03-07T13:02:00;24.08;;;10.20;;
40339;SDS011;26044;50.864;20.658;2023-03-07T13:04:32;24.50;;;9.70;;
40339;SDS011;26044;50.864;20.658;2023-03-07T13:07:04;28.48;;;11.13;;
40339;SDS011;26044;50.864;20.658;2023-03-07T13:09:41;25.05;;;9.77;;
40339;SDS011;26044;50.864;20.658;2023-03-07T13:14:46;24.88;;;9.23;;
40339;SDS011;26044;50.864;20.658;2023-03-07T13:19:57;25.90;;;9.85;;
40339;SDS011;26044;50.864;20.658;2023-03-07T13:24:53;26.55;;;10.23;;
40339;SDS011;26044;50.864;20.658;2023-03-07T13:27:25;27.33;;;9.90;;
40339;SDS011;26044;50.864;20.658;2023-03-07T13:38:00;25.38;;;10.38;;
40339;SDS011;26044;50.864;20.658;2023-03-07T13:46:02;24.98;;;9.82;;
40339;SDS011;26044;50.864;20.658;2023-03-07T13:55:56;26.27;;;9.73;;
40339;SDS011;26044;50.864;20.658;2023-03-07T14:00:56;25.88;;;10.55;;
40339;SDS011;26044;50.864;20.658;2023-03-07T14:03:35;27.05;;;11.23;;
40339;SDS011;26044;50.864;20.658;2023-03-07T14:06:08;25.20;;;10.40;;
40339;SDS011;26044;50.864;20.658;2023-03-07T14:08:39;26.50;;;10.45;;
40339;SDS011;26044;50.864;20.658;2023-03-07T14:11:15;23.70;;;10.27;;
40339;SDS011;26044;50.864;20.658;2023-03-07T14:30:22;23.92;;;10.13;;
40339;SDS011;26044;50.864;20.658;2023-03-07T14:32:50;27.60;;;11.63;;
40339;SDS011;26044;50.864;20.658;2023-03-07T14:38:17;24.88;;;9.55;;
40339;SDS011;26044;50.864;20.658;2023-03-07T14:40:53;25.95;;;10.35;;
40339;SDS011;26044;50.864;20.658;2023-03-07T14:43:44;27.60;;;11.38;;
40339;SDS011;26044;50.864;20.658;2023-03-07T14:52:07;26.10;;;10.32;;
40339;SDS011;26044;50.864;20.658;2023-03-07T14:54:54;27.98;;;11.07;;
40339;SDS011;26044;50.864;20.658;2023-03-07T14:57:35;25.95;;;9.93;;
40339;SDS011;26044;50.864;20.658;2023-03-07T15:02:54;24.80;;;10.70;;
40339;SDS011;26044;50.864;20.658;2023-03-07T15:05:50;26.38;;;10.38;;
40339;SDS011;26044;50.864;20.658;2023-03-07T15:08:21;30.13;;;11.77;;
40339;SDS011;26044;50.864;20.658;2023-03-07T15:11:10;27.25;;;10.90;;
40339;SDS011;26044;50.864;20.658;2023-03-07T15:14:09;30.67;;;12.07;;
40339;SDS011;26044;50.864;20.658;2023-03-07T15:16:41;29.63;;;11.38;;
40339;SDS011;26044;50.864;20.658;2023-03-07T15:22:26;29.13;;;10.57;;
40339;SDS011;26044;50.864;20.658;2023-03-07T15:24:56;28.67;;;11.65;;
40339;SDS011;26044;50.864;20.658;2023-03-07T15:27:27;30.25;;;12.10;;
40339;SDS011;26044;50.864;20.658;2023-03-07T15:29:57;30.80;;;11.55;;
40339;SDS011;26044;50.864;20.658;2023-03-07T15:35:00;28.63;;;12.00;;
40339;SDS011;26044;50.864;20.658;2023-03-07T15:37:33;27.45;;;10.93;;
40339;SDS011;26044;50.864;20.658;2023-03-07T15:42:53;29.40;;;12.77;;
40339;SDS011;26044;50.864;20.658;2023-03-07T15:46:17;30.88;;;12.02;;
40339;SDS011;26044;50.864;20.658;2023-03-07T15:49:02;27.30;;;10.45;;
40339;SDS011;26044;50.864;20.658;2023-03-07T15:51:37;27.05;;;10.98;;
40339;SDS011;26044;50.864;20.658;2023-03-07T15:54:16;28.02;;;12.18;;
40339;SDS011;26044;50.864;20.658;2023-03-07T15:57:17;30.02;;;11.70;;
40339;SDS011;26044;50.864;20.658;2023-03-07T16:04:59;27.25;;;11.48;;
40339;SDS011;26044;50.864;20.658;2023-03-07T16:07:29;28.33;;;11.07;;
40339;SDS011;26044;50.864;20.658;2023-03-07T16:09:56;31.02;;;12.38;;
40339;SDS011;26044;50.864;20.658;2023-03-07T16:12:23;30.90;;;12.23;;
40339;SDS011;26044;50.864;20.658;2023-03-07T16:14:50;30.10;;;12.40;;
40339;SDS011;26044;50.864;20.658;2023-03-07T16:17:35;26.83;;;11.52;;
40339;SDS011;26044;50.864;20.658;2023-03-07T16:20:03;30.23;;;12.45;;
40339;SDS011;26044;50.864;20.658;2023-03-07T16:22:38;31.08;;;12.45;;
40339;SDS011;26044;50.864;20.658;2023-03-07T16:25:05;31.63;;;13.20;;
40339;SDS011;26044;50.864;20.658;2023-03-07T16:27:32;33.42;;;12.45;;
40339;SDS011;26044;50.864;20.658;2023-03-07T16:29:59;29.33;;;12.57;;
40339;SDS011;26044;50.864;20.658;2023-03-07T16:32:26;28.88;;;11.90;;
40339;SDS011;26044;50.864;20.658;2023-03-07T16:34:55;26.45;;;11.65;;
40339;SDS011;26044;50.864;20.658;2023-03-07T16:37:22;27.65;;;12.30;;
40339;SDS011;26044;50.864;20.658;2023-03-07T16:39:49;34.72;;;12.80;;
40339;SDS011;26044;50.864;20.658;2023-03-07T16:42:20;30.45;;;12.63;;
40339;SDS011;26044;50.864;20.658;2023-03-07T16:44:48;32.30;;;13.07;;
40339;SDS011;26044;50.864;20.658;2023-03-07T16:47:17;32.55;;;14.40;;
40339;SDS011;26044;50.864;20.658;2023-03-07T16:49:44;33.42;;;14.27;;
40339;SDS011;26044;50.864;20.658;2023-03-07T16:52:12;33.15;;;13.65;;
40339;SDS011;26044;50.864;20.658;2023-03-07T16:54:39;29.80;;;13.00;;
40339;SDS011;26044;50.864;20.658;2023-03-07T16:57:10;29.30;;;12.70;;
40339;SDS011;26044;50.864;20.658;2023-03-07T16:59:44;27.63;;;12.82;;
40339;SDS011;26044;50.864;20.658;2023-03-07T17:02:14;31.70;;;14.32;;
40339;SDS011;26044;50.864;20.658;2023-03-07T17:04:43;32.35;;;12.40;;
40339;SDS011;26044;50.864;20.658;2023-03-07T17:07:13;37.45;;;15.18;;
40339;SDS011;26044;50.864;20.658;2023-03-07T17:09:44;32.80;;;13.82;;
40339;SDS011;26044;50.864;20.658;2023-03-07T17:12:12;34.85;;;13.95;;
40339;SDS011;26044;50.864;20.658;2023-03-07T17:14:40;32.17;;;13.52;;
40339;SDS011;26044;50.864;20.658;2023-03-07T17:17:10;32.55;;;14.18;;
40339;SDS011;26044;50.864;20.658;2023-03-07T17:19:42;31.13;;;12.38;;
40339;SDS011;26044;50.864;20.658;2023-03-07T17:22:09;31.60;;;13.68;;
40339;SDS011;26044;50.864;20.658;2023-03-07T17:24:36;30.77;;;12.82;;
40339;SDS011;26044;50.864;20.658;2023-03-07T17:27:03;29.42;;;12.65;;
40339;SDS011;26044;50.864;20.658;2023-03-07T17:29:32;32.05;;;13.43;;
40339;SDS011;26044;50.864;20.658;2023-03-07T17:32:03;33.38;;;14.07;;